Time;durP1;ratioP1;P1;durP2;ratioP2;P2;SDS_P1;SDS_P2;PMS_P1;PMS_P2;Temp;Humidity;BMP_temperature;BMP_pressure;BME280_temperature;BME280_humidity;BME280_pressure;Samples;Min_cycle;Max_cycle;Signal;HPM_P1;HPM_P2
2022/06/02 00:01:22;;;;;;;;;2.00;2.00;;;;;32.85;18.84;101315.28;5055657;28;45487;-81
2022/06/02 00:04:05;;;;;;;;;4.00;2.67;;;;;32.89;18.77;101305.84;5055429;28;45537;-81
2022/06/02 00:07:00;;;;;;;;;2.00;2.00;;;;;32.85;18.72;101323.53;5055089;28;45523;-81
2022/06/02 00:09:42;;;;;;;;;2.00;2.00;;;;;32.84;18.66;101308.03;5019091;28;45644;-81
2022/06/02 00:12:13;;;;;;;;;2.00;2.00;;;;;32.79;18.57;101312.97;5018509;28;45507;-81
2022/06/02 00:15:03;;;;;;;;;2.33;2.00;;;;;32.77;18.66;101329.56;5035081;28;45448;-81
2022/06/02 00:17:31;;;;;;;;;2.67;2.67;;;;;32.71;18.71;101329.06;5034598;28;46072;-80
2022/06/02 00:20:04;;;;;;;;;3.67;3.67;;;;;32.64;19.24;101329.44;5034282;28;45434;-81
2022/06/02 00:22:47;;;;;;;;;4.33;2.00;;;;;32.54;18.67;101327.38;5018154;28;45439;-81
2022/06/02 00:25:27;;;;;;;;;2.33;2.00;;;;;32.55;18.65;101330.03;5035170;28;45439;-81
2022/06/02 00:28:01;;;;;;;;;2.00;2.00;;;;;32.52;19.29;101335.72;5095569;27;46152;-81
2022/06/02 00:30:35;;;;;;;;;2.00;2.00;;;;;32.45;19.30;101335.22;5113584;27;45492;-80
2022/06/02 00:33:00;;;;;;;;;1.00;1.00;;;;;32.47;18.83;101349.72;5096739;27;45459;-80
2022/06/02 00:36:05;;;;;;;;;2.67;2.67;;;;;32.43;19.35;101339.06;5097912;27;45583;-80
2022/06/02 00:38:36;;;;;;;;;3.00;3.00;;;;;32.33;18.70;101333.28;5054795;28;46432;-80
2022/06/02 00:41:15;;;;;;;;;2.33;2.33;;;;;32.32;19.19;101345.22;5054870;28;45369;-81
2022/06/02 00:43:51;;;;;;;;;2.00;1.00;;;;;32.13;18.91;101320.78;5054901;28;45404;-81
2022/06/02 00:46:35;;;;;;;;;1.67;1.67;;;;;32.24;19.44;101348.47;5054961;28;45497;-81
2022/06/02 00:49:10;;;;;;;;;2.00;2.00;;;;;32.12;19.04;101346.47;5054638;28;45438;-80
2022/06/02 00:51:50;;;;;;;;;3.00;3.00;;;;;31.96;19.56;101346.53;5054173;28;45466;-81
2022/06/02 00:57:32;;;;;;;;;2.67;2.67;;;;;32.03;19.57;101344.31;5054682;28;45443;-81
2022/06/02 01:00:13;;;;;;;;;2.00;2.00;;;;;32.02;19.48;101331.56;5054585;28;46337;-81
2022/06/02 01:03:04;;;;;;;;;2.00;2.00;;;;;31.85;19.55;101313.41;5054400;28;45602;-80
2022/06/02 01:06:17;;;;;;;;;2.33;2.33;;;;;31.84;19.61;101328.09;5053931;28;45506;-81
2022/06/02 01:08:52;;;;;;;;;2.00;2.00;;;;;31.83;19.26;101335.44;5053868;28;45378;-80
2022/06/02 01:11:32;;;;;;;;;2.67;2.67;;;;;31.73;19.70;101332.38;5054227;28;45423;-80
2022/06/02 01:14:27;;;;;;;;;3.00;2.00;;;;;31.73;19.55;101332.38;5097363;27;45515;-81
2022/06/02 01:16:58;;;;;;;;;2.67;2.67;;;;;31.76;19.74;101332.19;5097287;27;45420;-80
2022/06/02 01:19:36;;;;;;;;;2.33;2.33;;;;;31.70;19.77;101331.69;5112780;27;45541;-81
2022/06/02 01:22:17;;;;;;;;;3.33;3.33;;;;;31.53;19.88;101333.53;5097079;27;46378;-81
2022/06/02 01:24:44;;;;;;;;;3.67;2.67;;;;;31.45;20.09;101323.06;5096589;27;45383;-80
2022/06/02 01:27:10;;;;;;;;;3.67;3.67;;;;;31.54;19.47;101328.97;5113234;27;45359;-80
2022/06/02 01:29:59;;;;;;;;;2.00;2.00;;;;;31.60;19.33;101325.88;5096885;27;45664;-80
2022/06/02 01:32:51;;;;;;;;;3.33;3.33;;;;;31.42;19.52;101316.84;5096658;27;46285;-80
2022/06/02 01:35:16;;;;;;;;;3.67;3.67;;;;;31.39;20.00;101325.28;5053582;28;45537;-81
2022/06/02 01:38:06;;;;;;;;;2.67;2.67;;;;;31.44;19.76;101329.50;5053829;28;45412;-80
2022/06/02 01:40:53;;;;;;;;;1.67;1.67;;;;;31.53;19.99;101325.31;5037168;28;45458;-80
2022/06/02 01:43:58;;;;;;;;;2.67;2.33;;;;;31.40;20.19;101313.34;5053967;28;45437;-80
2022/06/02 01:46:44;;;;;;;;;3.00;3.00;;;;;31.29;19.69;101317.63;5053829;28;45271;-80
2022/06/02 01:49:39;;;;;;;;;4.00;4.00;;;;;31.43;19.75;101324.97;5053719;28;45467;-80
2022/06/02 01:52:22;;;;;;;;;4.33;3.00;;;;;31.41;19.69;101326.94;5053630;28;45583;-80
2022/06/02 01:55:09;;;;;;;;;3.67;3.67;;;;;31.41;20.24;101326.06;5053523;28;46313;-80
2022/06/02 01:57:40;;;;;;;;;4.33;3.00;;;;;31.30;20.16;101337.69;5036540;28;45599;-80
2022/06/02 02:00:17;;;;;;;;;3.67;3.67;;;;;31.29;20.23;101339.53;5036782;28;45558;-81
2022/06/02 02:02:56;;;;;;;;;3.67;3.67;;;;;31.13;20.43;101347.75;5053086;28;45462;-81
2022/06/02 02:05:21;;;;;;;;;4.67;4.67;;;;;31.01;20.29;101351.22;5053416;28;46568;-81
2022/06/02 02:07:59;;;;;;;;;5.00;5.00;;;;;30.85;20.52;101336.63;5036181;28;45444;-81
2022/06/02 02:10:45;;;;;;;;;4.00;4.00;;;;;30.87;20.35;101343.78;5053717;28;45334;-81
2022/06/02 02:13:20;;;;;;;;;4.00;4.00;;;;;30.92;20.41;101346.25;5086256;27;45590;-81
2022/06/02 02:16:04;;;;;;;;;4.00;4.00;;;;;30.87;20.57;101343.78;5111908;27;46257;-81
2022/06/02 02:18:51;;;;;;;;;5.67;5.33;;;;;30.70;20.61;101341.97;5095738;27;45357;-81
2022/06/02 02:21:44;;;;;;;;;5.67;4.00;;;;;30.84;20.75;101338.44;5096387;27;45409;-81
2022/06/02 02:24:32;;;;;;;;;7.00;4.00;;;;;30.91;20.73;101331.66;5096449;27;45286;-81
2022/06/02 02:27:20;;;;;;;;;3.00;2.67;;;;;30.98;20.38;101334.91;5096077;27;46312;-81
2022/06/02 02:30:03;;;;;;;;;3.00;3.00;;;;;30.64;20.75;101300.38;5094535;27;45477;-81
2022/06/02 02:32:47;;;;;;;;;5.00;5.00;;;;;30.68;21.03;101327.50;5095714;27;45286;-80
2022/06/02 02:35:21;;;;;;;;;7.00;4.00;;;;;30.64;20.88;101328.63;5096263;27;45388;-81
2022/06/02 02:37:57;;;;;;;;;5.00;5.00;;;;;30.67;20.76;101327.59;5095750;27;46188;-80
2022/06/02 02:40:48;;;;;;;;;4.00;3.33;;;;;30.78;21.13;101327.84;5096073;27;45291;-81
2022/06/02 02:43:40;;;;;;;;;5.33;4.00;;;;;30.75;20.78;101322.56;5090970;27;45667;-81
2022/06/02 02:46:19;;;;;;;;;3.33;3.33;;;;;30.66;21.02;101321.25;5095760;27;45567;-80
2022/06/02 02:49:17;;;;;;;;;6.00;6.00;;;;;30.66;21.13;101321.25;5095549;27;46386;-80
2022/06/02 02:51:58;;;;;;;;;6.67;4.00;;;;;30.59;20.71;101320.69;5095591;27;45402;-81
2022/06/02 02:54:37;;;;;;;;;7.33;6.00;;;;;30.57;20.84;101325.34;5096047;27;45473;-81
2022/06/02 02:57:30;;;;;;;;;5.33;5.33;;;;;30.59;20.76;101337.13;5094538;27;45632;-81
2022/06/02 03:00:17;;;;;;;;;6.67;6.67;;;;;30.56;20.95;101339.13;5094157;27;48294;-81
2022/06/02 03:03:00;;;;;;;;;5.00;5.00;;;;;30.55;20.75;101338.25;5095102;27;45424;-79
2022/06/02 03:05:38;;;;;;;;;5.00;5.00;;;;;30.57;21.05;101347.25;5094487;27;45471;-79
2022/06/02 03:08:37;;;;;;;;;4.33;4.33;;;;;30.49;20.84;101321.28;5095585;27;45488;-80
2022/06/02 03:11:33;;;;;;;;;7.00;4.33;;;;;30.50;20.78;101336.75;5080208;27;48399;-79
2022/06/02 03:14:10;;;;;;;;;5.00;5.00;;;;;30.58;20.72;101339.94;5095389;27;45423;-79
2022/06/02 03:16:38;;;;;;;;;5.00;5.00;;;;;30.38;21.24;101317.28;5095159;27;45505;-79
2022/06/02 03:19:41;;;;;;;;;6.00;5.00;;;;;30.37;21.14;101331.91;5095643;27;45377;-79
2022/06/02 03:22:36;;;;;;;;;5.00;5.00;;;;;30.46;21.17;101330.56;5085498;27;47533;-79
2022/06/02 03:25:22;;;;;;;;;5.00;5.00;;;;;30.51;20.88;101331.19;5095262;27;45491;-79
2022/06/02 03:28:15;;;;;;;;;7.67;6.67;;;;;30.61;21.14;101337.03;5095377;27;45464;-79
2022/06/02 03:31:03;;;;;;;;;5.00;5.00;;;;;30.52;21.01;101337.53;5094996;27;45416;-79
2022/06/02 03:34:02;;;;;;;;;5.33;5.33;;;;;30.42;21.00;101329.81;5093944;27;47106;-80
2022/06/02 03:36:56;;;;;;;;;7.00;6.00;;;;;30.41;21.47;101333.53;5093936;27;45923;-79
2022/06/02 03:40:01;;;;;;;;;6.00;6.00;;;;;30.44;20.83;101340.72;5035414;28;45440;-79
2022/06/02 03:42:51;;;;;;;;;6.00;5.00;;;;;30.56;20.95;101341.88;5052483;28;45444;-79
2022/06/02 03:45:35;;;;;;;;;6.00;6.00;;;;;30.60;20.92;101338.91;5035119;28;48204;-79
2022/06/02 03:48:28;;;;;;;;;6.33;5.00;;;;;30.59;21.08;101342.59;5051991;28;45361;-80
2022/06/02 03:50:56;;;;;;;;;5.00;5.00;;;;;30.59;21.00;101344.44;5052049;28;45442;-79
2022/06/02 03:53:24;;;;;;;;;5.00;5.00;;;;;30.53;20.87;101345.66;5052244;28;45489;-80
2022/06/02 03:56:22;;;;;;;;;6.33;5.00;;;;;30.44;21.07;101341.59;5053727;28;46379;-80
2022/06/02 03:59:11;;;;;;;;;7.00;6.00;;;;;30.43;21.03;101349.91;5054568;28;45548;-80
2022/06/02 04:01:40;;;;;;;;;6.67;6.67;;;;;30.50;20.87;101344.97;5055585;28;45475;-80
2022/06/02 04:04:16;;;;;;;;;8.33;7.00;;;;;30.57;21.15;101349.13;5055557;28;45555;-80
2022/06/02 04:06:53;;;;;;;;;5.00;5.00;;;;;30.61;21.40;101342.50;5055195;28;45573;-80
2022/06/02 04:09:30;;;;;;;;;6.67;6.67;;;;;30.58;21.31;101345.44;5054883;28;45339;-80
2022/06/02 04:15:14;;;;;;;;;6.33;6.33;;;;;30.49;21.43;101351.41;5054638;28;45459;-81
2022/06/02 04:18:04;;;;;;;;;7.33;6.33;;;;;30.54;21.16;101346.56;5096127;27;47172;-80
2022/06/02 04:21:02;;;;;;;;;9.00;7.33;;;;;30.35;21.37;101336.59;5096739;27;45541;-80
2022/06/02 04:23:53;;;;;;;;;6.00;6.00;;;;;30.51;21.18;101358.56;5097975;27;45388;-80
2022/06/02 04:26:45;;;;;;;;;8.00;7.00;;;;;30.23;21.40;101315.38;5098068;27;45458;-80
2022/06/02 04:29:39;;;;;;;;;5.33;5.33;;;;;30.51;20.95;101357.69;5097642;27;46203;-82
2022/06/02 04:32:42;;;;;;;;;7.67;7.67;;;;;30.57;20.95;101373.78;5097472;27;45337;-79
2022/06/02 04:35:36;;;;;;;;;9.00;8.00;;;;;30.53;21.38;101370.31;5092784;27;45380;-80
2022/06/02 04:38:20;;;;;;;;;6.33;6.00;;;;;30.45;21.17;101375.34;5097788;27;45360;-80
2022/06/02 04:41:00;;;;;;;;;8.00;8.00;;;;;30.41;21.19;101380.06;5113360;27;48397;-80
2022/06/02 04:43:45;;;;;;;;;7.00;6.00;;;;;30.40;21.31;101366.47;5097287;27;45353;-79
2022/06/02 04:46:30;;;;;;;;;7.00;7.00;;;;;30.67;21.23;101385.97;5096362;27;45398;-80
2022/06/02 04:49:02;;;;;;;;;6.00;5.00;;;;;30.71;20.97;101376.63;5097285;27;45349;-79
2022/06/02 04:51:46;;;;;;;;;7.00;7.00;;;;;30.74;20.96;101376.44;5097412;27;45420;-79
2022/06/02 04:54:26;;;;;;;;;6.67;6.67;;;;;30.79;21.14;101376.19;5096529;27;45383;-79
2022/06/02 04:57:00;;;;;;;;;6.67;5.67;;;;;30.67;20.80;101336.69;5097655;27;45456;-81
2022/06/02 04:59:35;;;;;;;;;8.00;8.00;;;;;30.78;20.87;101355.25;5090236;27;45477;-81
2022/06/02 05:02:10;;;;;;;;;7.33;6.67;;;;;30.95;20.70;101373.47;5097153;27;45375;-84
2022/06/02 05:04:41;;;;;;;;;7.00;7.00;;;;;30.97;20.97;101374.28;5097387;27;45454;-82
2022/06/02 05:07:21;;;;;;;;;6.00;6.00;;;;;30.89;20.87;101349.16;5076598;27;45243;-83
2022/06/02 05:10:02;;;;;;;;;6.67;6.67;;;;;31.03;20.82;101353.91;5076807;27;45395;-84
2022/06/02 05:12:34;;;;;;;;;6.00;6.00;;;;;31.07;20.61;101356.34;5088731;27;47022;-77
2022/06/02 05:15:17;;;;;;;;;8.33;7.00;;;;;31.14;20.97;101367.84;5054782;27;45783;-77
2022/06/02 05:18:00;;;;;;;;;8.00;6.67;;;;;31.08;20.93;101370.94;5091322;27;45578;-77
2022/06/02 05:21:03;;;;;;;;;7.00;6.00;;;;;31.20;21.12;101355.66;5091896;27;45460;-78
2022/06/02 05:23:47;;;;;;;;;8.00;7.00;;;;;31.25;20.62;101369.94;5091766;27;45380;-78
2022/06/02 05:26:18;;;;;;;;;6.67;6.33;;;;;31.28;21.08;101372.50;5093131;27;45448;-77
2022/06/02 05:29:12;;;;;;;;;8.33;7.00;;;;;31.28;20.57;101370.66;5091787;27;45516;-77
2022/06/02 05:32:02;;;;;;;;;6.67;6.67;;;;;31.24;21.03;101354.50;5094837;27;45420;-78
2022/06/02 05:34:55;;;;;;;;;7.00;7.00;;;;;31.16;20.60;101343.09;5092310;27;47428;-77
2022/06/02 05:37:44;;;;;;;;;7.00;7.00;;;;;31.25;20.18;101373.59;5090859;27;45457;-77
2022/06/02 05:40:32;;;;;;;;;7.00;7.00;;;;;31.09;21.03;101359.88;5104512;27;45708;-77
2022/06/02 05:43:14;;;;;;;;;7.67;6.67;;;;;30.93;21.19;101339.81;5092710;27;45789;-78
2022/06/02 05:46:02;;;;;;;;;6.67;6.67;;;;;31.20;20.65;101366.63;5090122;27;46477;-77
2022/06/02 05:48:46;;;;;;;;;7.33;6.33;;;;;31.32;20.84;101371.34;5085093;27;45450;-77
2022/06/02 05:51:28;;;;;;;;;8.00;8.00;;;;;31.28;20.94;101353.31;5091700;27;45474;-77
2022/06/02 05:54:22;;;;;;;;;6.33;6.33;;;;;31.30;20.55;101354.13;5087421;27;45467;-75
2022/06/02 05:57:00;;;;;;;;;9.00;7.00;;;;;31.44;20.77;101375.25;5095706;27;45406;-82
2022/06/02 05:59:49;;;;;;;;;8.00;5.50;;;;;31.29;20.28;101358.72;5111058;27;45461;-80
2022/06/02 06:03:01;;;;;;;;;5.67;5.67;;;;;31.16;20.67;101357.66;5116129;27;45441;-82
2022/06/02 06:05:38;;;;;;;;;5.67;5.67;;;;;31.46;20.70;101367.78;5099216;27;45606;-79
2022/06/02 06:08:08;;;;;;;;;8.00;7.00;;;;;31.31;21.20;101331.22;5096615;27;45528;-79
2022/06/02 06:10:52;;;;;;;;;7.67;7.67;;;;;31.45;20.42;101366.06;5094590;27;45780;-79
2022/06/02 06:13:29;;;;;;;;;7.67;7.67;;;;;31.32;20.79;101371.34;5094797;27;45705;-77
2022/06/02 06:16:30;;;;;;;;;6.33;6.33;;;;;31.42;20.71;101369.84;5103377;27;45578;-77
2022/06/02 06:19:19;;;;;;;;;6.67;6.67;;;;;31.42;21.25;101371.69;5114773;27;45661;-77
2022/06/02 06:22:03;;;;;;;;;7.00;6.00;;;;;31.52;20.66;101372.94;5097457;27;45228;-77
2022/06/02 06:24:53;;;;;;;;;6.67;6.67;;;;;31.46;20.70;101370.53;5100604;27;45432;-77
2022/06/02 06:27:36;;;;;;;;;8.00;8.00;;;;;31.46;20.96;101374.19;5116363;27;45372;-76
2022/06/02 06:30:16;;;;;;;;;7.33;7.33;;;;;31.55;20.67;101378.22;5114616;27;47433;-76
2022/06/02 06:33:04;;;;;;;;;8.33;8.33;;;;;31.42;21.12;101379.91;5104879;27;45283;-77
2022/06/02 06:35:36;;;;;;;;;6.67;6.67;;;;;31.44;21.01;101367.88;5100500;27;45245;-75
2022/06/02 06:38:08;;;;;;;;;6.67;6.33;;;;;31.47;20.97;101370.44;5094519;27;45548;-74
2022/06/02 06:40:57;;;;;;;;;7.00;7.00;;;;;31.42;21.05;101372.59;5095743;27;46243;-75
2022/06/02 06:43:50;;;;;;;;;7.67;7.67;;;;;31.57;21.11;101375.41;5094235;27;45406;-75
2022/06/02 06:46:23;;;;;;;;;9.00;8.00;;;;;31.62;20.59;101365.94;5095613;27;45551;-74
2022/06/02 06:49:00;;;;;;;;;8.00;8.00;;;;;31.67;20.88;101349.19;5095756;27;45457;-75
2022/06/02 06:51:58;;;;;;;;;8.00;7.67;;;;;31.73;20.69;101365.31;5098820;27;46175;-74
2022/06/02 06:54:29;;;;;;;;;8.00;8.00;;;;;31.68;21.12;101361.94;5097991;27;45392;-75
2022/06/02 06:57:10;;;;;;;;;10.00;7.00;;;;;31.80;21.12;101376.75;5096245;27;45521;-74
2022/06/02 06:59:39;;;;;;;;;9.67;8.00;;;;;31.78;20.94;101379.59;5095919;27;45412;-74
2022/06/02 07:02:12;;;;;;;;;7.33;7.33;;;;;31.71;21.02;101380.09;5095608;27;46143;-74
2022/06/02 07:04:43;;;;;;;;;8.00;8.00;;;;;31.80;21.02;101382.25;5095871;27;45371;-74
2022/06/02 07:07:20;;;;;;;;;8.67;7.33;;;;;31.91;21.26;101382.50;5092284;27;45398;-74
2022/06/02 07:10:12;;;;;;;;;6.33;5.67;;;;;32.03;21.05;101378.13;5095924;27;45491;-74
2022/06/02 07:13:06;;;;;;;;;7.33;5.67;;;;;32.09;21.34;101377.72;5095426;27;45397;-73
2022/06/02 07:15:41;;;;;;;;;6.67;6.33;;;;;32.23;21.20;101379.66;5097723;27;45491;-72
2022/06/02 07:18:34;;;;;;;;;7.67;7.67;;;;;32.27;20.87;101380.34;5096011;27;45372;-74
2022/06/02 07:21:00;;;;;;;;;8.33;8.33;;;;;32.17;21.31;101379.13;5075321;28;45399;-72
2022/06/02 07:23:43;;;;;;;;;5.67;5.67;;;;;32.36;21.17;101389.88;5052961;27;46109;-70
2022/06/02 07:26:50;;;;;;;;;6.33;6.33;;;;;32.48;20.41;101389.97;5089700;27;45687;-69
2022/06/02 07:29:37;;;;;;;;;6.33;6.33;;;;;32.60;20.28;101390.16;5052947;28;45439;-70
2022/06/02 07:32:05;;;;;;;;;7.33;7.33;;;;;32.58;20.89;101381.16;5060223;28;45483;-69
2022/06/02 07:34:42;;;;;;;;;7.00;6.67;;;;;32.57;20.43;101382.13;5063432;28;46431;-70
2022/06/02 07:37:29;;;;;;;;;8.33;8.33;;;;;32.69;20.27;101386.88;5062025;28;45606;-74
2022/06/02 07:40:03;;;;;;;;;10.00;9.67;;;;;32.89;20.72;101387.44;5066210;28;45510;-74
2022/06/02 07:43:11;;;;;;;;;10.00;9.00;;;;;32.88;20.20;101388.41;5038042;28;45467;-75
2022/06/02 07:46:02;;;;;;;;;5.67;5.67;;;;;32.91;20.58;101394.59;4968637;28;45441;-75
2022/06/02 07:48:42;;;;;;;;;6.67;6.67;;;;;32.85;20.40;101394.13;4977379;28;45575;-74
2022/06/02 07:51:18;;;;;;;;;6.00;6.00;;;;;32.85;20.53;101392.22;4971435;28;45469;-75
2022/06/02 07:53:45;;;;;;;;;7.00;5.67;;;;;32.95;20.51;101398.00;4972530;28;45496;-74
2022/06/02 07:56:36;;;;;;;;;8.00;8.00;;;;;32.96;20.15;101394.28;4970977;28;45609;-74
2022/06/02 07:59:27;;;;;;;;;7.00;7.00;;;;;32.97;20.04;101382.31;4968906;28;45512;-74
2022/06/02 08:02:29;;;;;;;;;4.00;4.00;;;;;33.24;19.83;101395.25;4967797;28;45525;-74
2022/06/02 08:05:06;;;;;;;;;4.00;4.00;;;;;33.33;19.13;101398.28;4973192;28;45887;-74
2022/06/02 08:07:41;;;;;;;;;8.67;8.67;;;;;33.41;19.82;101384.00;5030624;28;45475;-74
2022/06/02 08:10:19;;;;;;;;;5.00;5.00;;;;;33.55;19.24;101384.94;5034035;28;45663;-75
2022/06/02 08:12:56;;;;;;;;;5.00;5.00;;;;;33.67;19.63;101384.06;5013733;28;45582;-74
2022/06/02 08:15:52;;;;;;;;;5.33;5.33;;;;;33.71;19.34;101380.13;5031111;28;45901;-74
2022/06/02 08:19:01;;;;;;;;;5.67;5.33;;;;;33.72;18.98;101376.38;5028506;28;45886;-73
2022/06/02 08:21:43;;;;;;;;;7.33;6.00;;;;;33.81;19.09;101367.53;5041452;27;45474;-73
2022/06/02 08:24:33;;;;;;;;;5.00;5.00;;;;;33.90;18.90;101368.75;5109709;27;46437;-74
2022/06/02 08:27:12;;;;;;;;;5.00;5.00;;;;;34.04;19.01;101370.53;5093041;27;45549;-73
2022/06/02 08:29:57;;;;;;;;;5.00;5.00;;;;;34.19;18.95;101354.78;5093801;27;46599;-74
2022/06/02 08:32:56;;;;;;;;;5.00;5.00;;;;;34.48;18.85;101355.47;5093190;27;45451;-74
2022/06/02 08:35:49;;;;;;;;;4.33;4.33;;;;;34.58;18.30;101365.81;5090667;27;45517;-74
2022/06/02 08:38:29;;;;;;;;;6.33;6.33;;;;;34.86;18.47;101361.94;5090593;27;45512;-74
2022/06/02 08:41:28;;;;;;;;;7.67;6.00;;;;;34.86;18.22;101343.50;5092375;27;46173;-74
2022/06/02 08:44:08;;;;;;;;;8.00;5.00;;;;;35.02;18.06;101334.97;5094438;27;45584;-74
2022/06/02 08:46:54;;;;;;;;;4.00;4.00;;;;;35.09;18.32;101316.06;5096330;27;45432;-74
2022/06/02 08:49:38;;;;;;;;;5.33;5.33;;;;;35.35;18.21;101336.19;5092145;27;45516;-74
2022/06/02 08:52:32;;;;;;;;;5.00;4.00;;;;;35.43;18.00;101327.31;5095957;27;46195;-74
2022/06/02 08:55:29;;;;;;;;;5.00;5.00;;;;;35.60;17.87;101322.34;5080694;27;45581;-74
2022/06/02 08:58:18;;;;;;;;;4.67;4.00;;;;;35.55;17.86;101325.47;5094156;27;45567;-74
2022/06/02 09:01:11;;;;;;;;;4.67;4.67;;;;;35.66;17.56;101332.94;5093940;27;46046;-74
2022/06/02 09:03:55;;;;;;;;;5.67;5.67;;;;;35.68;17.75;101325.41;5093910;27;45518;-74
2022/06/02 09:06:58;;;;;;;;;4.00;4.00;;;;;35.80;17.78;101329.09;5094671;27;45513;-75
2022/06/02 09:10:02;;;;;;;;;4.00;4.00;;;;;35.67;17.61;101327.28;5092114;27;45495;-73
2022/06/02 09:12:58;;;;;;;;;4.00;4.00;;;;;35.64;17.48;101332.16;5049936;28;45588;-74
2022/06/02 09:15:39;;;;;;;;;4.00;4.00;;;;;35.51;17.46;101327.63;5049479;27;46332;-74
2022/06/02 09:18:10;;;;;;;;;5.00;4.00;;;;;35.38;17.63;101335.06;5049612;28;45498;-74
2022/06/02 09:21:14;;;;;;;;;4.67;4.00;;;;;35.51;17.74;101327.63;5032626;28;45564;-74
2022/06/02 09:24:05;;;;;;;;;5.67;4.67;;;;;35.51;17.30;101324.84;5025775;28;45514;-74
2022/06/02 09:27:07;;;;;;;;;3.00;3.00;;;;;35.59;17.64;101329.75;5051073;28;46515;-75
2022/06/02 09:29:42;;;;;;;;;5.00;5.00;;;;;35.60;17.23;101328.78;5032700;28;45921;-74
2022/06/02 09:32:20;;;;;;;;;3.00;3.00;;;;;35.58;17.47;101335.41;5031260;28;45699;-75
2022/06/02 09:34:56;;;;;;;;;4.00;4.00;;;;;35.60;17.50;101341.66;5050241;28;45492;-74
2022/06/02 09:37:25;;;;;;;;;4.00;4.00;;;;;35.54;17.36;101338.41;5052440;28;46550;-74
2022/06/02 09:40:11;;;;;;;;;4.67;3.00;;;;;35.62;17.29;101343.31;5048852;28;45485;-73
2022/06/02 09:43:01;;;;;;;;;6.00;4.00;;;;;35.76;17.37;101346.88;5048880;28;45407;-74
2022/06/02 09:45:41;;;;;;;;;3.33;3.33;;;;;35.83;17.27;101346.31;5033934;27;45927;-74
2022/06/02 09:48:24;;;;;;;;;5.00;5.00;;;;;35.77;17.37;101344.00;5093035;27;46133;-74
2022/06/02 09:51:08;;;;;;;;;6.67;5.67;;;;;35.71;17.41;101339.84;5090288;27;45718;-74
2022/06/02 09:53:41;;;;;;;;;4.00;4.00;;;;;35.71;17.59;101331.56;5096104;27;45417;-74
2022/06/02 09:56:44;;;;;;;;;4.00;4.00;;;;;35.84;17.35;101333.41;5091608;27;45873;-75
2022/06/02 09:59:38;;;;;;;;;5.00;5.00;;;;;35.60;17.41;101328.78;5092869;27;45686;-74
2022/06/02 10:02:34;;;;;;;;;5.00;4.00;;;;;35.72;17.22;101340.72;5095566;27;45924;-74
2022/06/02 10:05:41;;;;;;;;;6.33;4.00;;;;;35.86;16.87;101336.91;5110329;27;45695;-74
2022/06/02 10:08:19;;;;;;;;;5.00;4.00;;;;;35.87;17.04;101320.22;5088023;27;46538;-74
2022/06/02 10:10:54;;;;;;;;;5.00;5.00;;;;;35.71;16.68;101325.16;5089926;27;46847;-74
2022/06/02 10:13:56;;;;;;;;;3.33;3.33;;;;;35.73;17.31;101323.16;5106847;27;45475;-74
2022/06/02 10:16:32;;;;;;;;;3.33;3.33;;;;;35.81;16.63;101301.38;5093031;27;46478;-74
2022/06/02 10:19:34;;;;;;;;;4.00;4.00;;;;;35.93;16.75;101318.84;5091272;27;45522;-73
2022/06/02 10:22:13;;;;;;;;;3.67;3.67;;;;;36.03;16.91;101313.47;5079500;27;46828;-73
2022/06/02 10:25:16;;;;;;;;;5.00;4.00;;;;;36.16;16.85;101319.78;5111536;27;45645;-74
2022/06/02 10:28:07;;;;;;;;;4.33;4.33;;;;;35.77;16.51;101280.50;5090767;27;45430;-74
2022/06/02 10:31:09;;;;;;;;;8.00;5.00;;;;;35.93;16.66;101310.56;5026131;28;45683;-73
2022/06/02 10:34:00;;;;;;;;;4.00;4.00;;;;;36.03;16.59;101285.84;5027563;28;45415;-74
2022/06/02 10:37:02;;;;;;;;;5.00;5.00;;;;;36.25;16.40;101301.56;5028160;28;45447;-74
2022/06/02 10:39:57;;;;;;;;;6.00;4.00;;;;;36.36;16.24;101295.19;5027104;28;45420;-74
2022/06/02 10:43:01;;;;;;;;;3.33;3.33;;;;;36.36;16.33;101300.72;5015414;28;45435;-75
2022/06/02 10:45:41;;;;;;;;;4.00;4.00;;;;;36.44;16.65;101303.72;4965090;28;47383;-77
2022/06/02 10:48:39;;;;;;;;;5.00;3.33;;;;;36.50;16.59;101296.78;4969810;28;45520;-75
2022/06/02 10:51:46;;;;;;;;;3.00;3.00;;;;;36.53;16.23;101297.44;4968453;28;45492;-75
2022/06/02 10:54:45;;;;;;;;;4.67;4.67;;;;;36.40;15.81;101286.53;4968015;28;45527;-77
2022/06/02 10:57:23;;;;;;;;;5.00;4.00;;;;;36.31;16.33;101290.03;4968945;28;45460;-74
2022/06/02 11:00:22;;;;;;;;;3.33;3.33;;;;;36.49;16.09;101292.31;4967214;28;45508;-74
2022/06/02 11:03:27;;;;;;;;;4.00;4.00;;;;;36.64;15.89;101301.19;4968842;28;45443;-74
2022/06/02 11:06:01;;;;;;;;;3.00;3.00;;;;;36.52;15.64;101292.03;4971177;28;45675;-74
2022/06/02 11:08:45;;;;;;;;;5.00;3.67;;;;;36.54;15.92;101301.97;5005247;28;48429;-74
2022/06/02 11:11:44;;;;;;;;;5.00;4.00;;;;;36.65;15.99;101289.13;5006353;28;45732;-72
2022/06/02 11:14:39;;;;;;;;;5.33;3.33;;;;;36.64;15.86;101279.06;4994499;28;45792;-74
2022/06/02 11:17:34;;;;;;;;;3.67;3.00;;;;;36.83;16.03;101275.69;4925614;28;45794;-74
2022/06/02 11:20:06;;;;;;;;;3.00;3.00;;;;;36.88;15.72;101265.97;4962858;28;48452;-75
2022/06/02 11:22:56;;;;;;;;;4.00;4.00;;;;;36.73;15.84;101261.72;5003607;28;45610;-74
2022/06/02 11:25:52;;;;;;;;;3.00;3.00;;;;;36.89;16.09;101251.16;5004799;28;45534;-74
2022/06/02 11:28:17;;;;;;;;;3.67;3.67;;;;;37.09;15.76;101262.41;5004016;28;45935;-74
2022/06/02 11:31:24;;;;;;;;;3.00;3.00;;;;;37.07;15.84;101232.09;5004638;28;46003;-74
2022/06/02 11:34:01;;;;;;;;;4.00;4.00;;;;;37.12;15.45;101250.19;4995805;28;45573;-73
2022/06/02 11:36:42;;;;;;;;;3.00;3.00;;;;;37.17;15.89;101254.28;5005282;28;45590;-74
2022/06/02 11:39:54;;;;;;;;;3.67;3.67;;;;;37.10;15.01;101239.25;5003030;28;45844;-74
2022/06/02 11:42:35;;;;;;;;;3.67;3.67;;;;;37.02;15.44;101247.31;5000260;28;45439;-74
2022/06/02 11:45:22;;;;;;;;;4.67;4.67;;;;;37.23;15.79;101263.94;5004052;28;45605;-75
2022/06/02 11:48:13;;;;;;;;;2.33;2.33;;;;;37.36;15.54;101250.84;5001503;28;45504;-74
2022/06/02 11:50:44;;;;;;;;;3.00;3.00;;;;;37.39;15.74;101260.78;5004507;28;45551;-76
2022/06/02 11:53:37;;;;;;;;;3.67;3.67;;;;;37.52;14.97;101246.75;5005459;28;46465;-74
2022/06/02 11:56:13;;;;;;;;;2.33;2.33;;;;;37.68;14.63;101247.16;5087657;27;45968;-74
2022/06/02 11:59:03;;;;;;;;;2.00;2.00;;;;;37.88;14.26;101237.09;5091442;27;45442;-74
2022/06/02 12:01:47;;;;;;;;;3.00;3.00;;;;;37.93;14.33;101236.66;5091212;27;45431;-74
2022/06/02 12:04:49;;;;;;;;;4.00;3.67;;;;;38.00;14.58;101245.31;5093480;27;45595;-74
2022/06/02 12:07:48;;;;;;;;;3.00;3.00;;;;;37.99;14.81;101236.13;5091909;27;45196;-74
2022/06/02 12:10:19;;;;;;;;;3.33;3.33;;;;;38.02;14.18;101238.63;5093741;27;45511;-74
2022/06/02 12:13:03;;;;;;;;;3.00;3.00;;;;;38.01;14.33;101234.09;5095016;27;45430;-74
2022/06/02 12:15:43;;;;;;;;;4.00;4.00;;;;;38.02;14.35;101226.69;5092438;27;45390;-74
2022/06/02 12:18:16;;;;;;;;;3.67;3.67;;;;;37.94;14.51;101210.72;5092388;27;46514;-74
2022/06/02 12:21:08;;;;;;;;;3.00;3.00;;;;;38.26;14.29;101229.13;5094160;27;45424;-74
2022/06/02 12:24:12;;;;;;;;;2.67;2.67;;;;;38.44;14.43;101205.25;5093182;27;45892;-73
2022/06/02 12:27:04;;;;;;;;;2.67;2.67;;;;;38.72;14.35;101210.13;5108566;27;48122;-73
2022/06/02 12:29:56;;;;;;;;;4.00;4.00;;;;;38.71;14.67;101206.50;5092304;27;45904;-74
2022/06/02 12:32:57;;;;;;;;;4.00;4.00;;;;;38.46;14.00;101207.88;5091043;27;45547;-74
2022/06/02 12:35:53;;;;;;;;;3.00;3.00;;;;;38.38;13.98;101193.84;5030629;28;45510;-75
2022/06/02 12:38:38;;;;;;;;;3.00;3.00;;;;;38.46;14.75;101191.25;5028930;28;45773;-75
2022/06/02 12:41:15;;;;;;;;;3.00;3.00;;;;;38.51;14.73;101194.47;5024518;28;45435;-74
2022/06/02 12:44:18;;;;;;;;;3.67;3.00;;;;;38.43;13.68;101188.75;5029803;28;45713;-74
2022/06/02 12:47:00;;;;;;;;;2.67;2.67;;;;;38.65;14.50;101181.19;5029318;28;45542;-74
2022/06/02 12:49:53;;;;;;;;;3.00;3.00;;;;;38.83;13.57;101171.16;5028559;28;45701;-74
2022/06/02 12:52:47;;;;;;;;;3.00;3.00;;;;;38.86;13.26;101172.78;5025947;28;45696;-74
2022/06/02 12:55:24;;;;;;;;;3.00;3.00;;;;;38.58;13.36;101164.25;5028412;28;45520;-74